sensor_id;sensor_type;location;lat;lon;timestamp;P1;durP1;ratioP1;P2;durP2;ratioP2
31390;SDS011;18022;45.492;11.548;2024-01-30T00:02:14;24.00;;;13.80;;
31390;SDS011;18022;45.492;11.548;2024-01-30T00:04:41;23.10;;;12.63;;
31390;SDS011;18022;45.492;11.548;2024-01-30T00:07:07;16.70;;;11.80;;
31390;SDS011;18022;45.492;11.548;2024-01-30T00:09:33;20.23;;;12.50;;
31390;SDS011;18022;45.492;11.548;2024-01-30T00:11:59;22.58;;;12.35;;
31390;SDS011;18022;45.492;11.548;2024-01-30T00:14:25;19.52;;;11.93;;
31390;SDS011;18022;45.492;11.548;2024-01-30T00:16:51;20.40;;;12.68;;
31390;SDS011;18022;45.492;11.548;2024-01-30T00:19:17;18.88;;;12.77;;
31390;SDS011;18022;45.492;11.548;2024-01-30T00:21:43;24.50;;;14.48;;
31390;SDS011;18022;45.492;11.548;2024-01-30T00:24:09;29.08;;;16.48;;
31390;SDS011;18022;45.492;11.548;2024-01-30T00:26:35;28.05;;;15.57;;
31390;SDS011;18022;45.492;11.548;2024-01-30T00:29:02;21.73;;;14.25;;
31390;SDS011;18022;45.492;11.548;2024-01-30T00:31:28;26.50;;;14.65;;
31390;SDS011;18022;45.492;11.548;2024-01-30T00:33:54;23.27;;;14.60;;
31390;SDS011;18022;45.492;11.548;2024-01-30T00:36:20;20.83;;;13.85;;
31390;SDS011;18022;45.492;11.548;2024-01-30T00:38:46;23.75;;;14.93;;
31390;SDS011;18022;45.492;11.548;2024-01-30T00:41:12;27.98;;;15.95;;
31390;SDS011;18022;45.492;11.548;2024-01-30T00:43:38;25.95;;;15.25;;
31390;SDS011;18022;45.492;11.548;2024-01-30T00:46:05;22.95;;;14.75;;
31390;SDS011;18022;45.492;11.548;2024-01-30T00:48:31;21.05;;;14.27;;
31390;SDS011;18022;45.492;11.548;2024-01-30T00:50:57;24.98;;;14.23;;
31390;SDS011;18022;45.492;11.548;2024-01-30T00:53:23;23.75;;;15.32;;
31390;SDS011;18022;45.492;11.548;2024-01-30T00:55:49;23.80;;;15.02;;
31390;SDS011;18022;45.492;11.548;2024-01-30T00:58:15;25.13;;;14.80;;
31390;SDS011;18022;45.492;11.548;2024-01-30T01:00:41;25.13;;;15.65;;
31390;SDS011;18022;45.492;11.548;2024-01-30T01:03:07;24.13;;;14.70;;
31390;SDS011;18022;45.492;11.548;2024-01-30T01:05:33;23.92;;;14.23;;
31390;SDS011;18022;45.492;11.548;2024-01-30T01:07:59;21.85;;;14.80;;
31390;SDS011;18022;45.492;11.548;2024-01-30T01:10:25;25.45;;;14.40;;
31390;SDS011;18022;45.492;11.548;2024-01-30T01:12:53;24.45;;;15.07;;
31390;SDS011;18022;45.492;11.548;2024-01-30T01:15:19;24.45;;;15.73;;
31390;SDS011;18022;45.492;11.548;2024-01-30T01:17:45;27.17;;;15.88;;
31390;SDS011;18022;45.492;11.548;2024-01-30T01:20:11;25.98;;;16.08;;
31390;SDS011;18022;45.492;11.548;2024-01-30T01:22:37;26.60;;;18.02;;
31390;SDS011;18022;45.492;11.548;2024-01-30T01:25:03;25.42;;;16.48;;
31390;SDS011;18022;45.492;11.548;2024-01-30T01:27:33;25.85;;;15.65;;
31390;SDS011;18022;45.492;11.548;2024-01-30T01:29:59;25.02;;;15.55;;
31390;SDS011;18022;45.492;11.548;2024-01-30T01:32:25;23.23;;;15.50;;
31390;SDS011;18022;45.492;11.548;2024-01-30T01:34:51;25.58;;;14.68;;
31390;SDS011;18022;45.492;11.548;2024-01-30T01:37:18;21.38;;;14.18;;
31390;SDS011;18022;45.492;11.548;2024-01-30T01:39:46;19.42;;;12.45;;
31390;SDS011;18022;45.492;11.548;2024-01-30T01:42:12;21.58;;;12.68;;
31390;SDS011;18022;45.492;11.548;2024-01-30T01:44:38;20.98;;;12.65;;
31390;SDS011;18022;45.492;11.548;2024-01-30T01:47:04;19.73;;;12.52;;
31390;SDS011;18022;45.492;11.548;2024-01-30T01:49:31;21.17;;;12.07;;
31390;SDS011;18022;45.492;11.548;2024-01-30T01:51:57;19.92;;;12.90;;
31390;SDS011;18022;45.492;11.548;2024-01-30T01:54:24;20.63;;;13.05;;
31390;SDS011;18022;45.492;11.548;2024-01-30T01:56:51;21.10;;;12.82;;
31390;SDS011;18022;45.492;11.548;2024-01-30T01:59:18;19.40;;;11.47;;
31390;SDS011;18022;45.492;11.548;2024-01-30T02:01:45;17.88;;;11.15;;
31390;SDS011;18022;45.492;11.548;2024-01-30T02:04:14;20.83;;;11.77;;
31390;SDS011;18022;45.492;11.548;2024-01-30T02:06:40;17.85;;;11.85;;
31390;SDS011;18022;45.492;11.548;2024-01-30T02:09:06;17.70;;;13.00;;
31390;SDS011;18022;45.492;11.548;2024-01-30T02:11:34;16.35;;;11.35;;
31390;SDS011;18022;45.492;11.548;2024-01-30T02:14:03;18.02;;;11.00;;
31390;SDS011;18022;45.492;11.548;2024-01-30T02:16:30;17.48;;;10.18;;
31390;SDS011;18022;45.492;11.548;2024-01-30T02:18:56;17.02;;;11.15;;
31390;SDS011;18022;45.492;11.548;2024-01-30T02:21:22;17.40;;;11.20;;
31390;SDS011;18022;45.492;11.548;2024-01-30T02:23:48;16.98;;;11.02;;
31390;SDS011;18022;45.492;11.548;2024-01-30T02:26:15;17.95;;;10.15;;
31390;SDS011;18022;45.492;11.548;2024-01-30T02:28:41;15.88;;;11.07;;
31390;SDS011;18022;45.492;11.548;2024-01-30T02:31:07;19.48;;;10.98;;
31390;SDS011;18022;45.492;11.548;2024-01-30T02:33:33;16.70;;;10.52;;
31390;SDS011;18022;45.492;11.548;2024-01-30T02:35:59;18.02;;;10.70;;
31390;SDS011;18022;45.492;11.548;2024-01-30T02:38:25;17.15;;;11.30;;
31390;SDS011;18022;45.492;11.548;2024-01-30T02:40:52;19.58;;;12.02;;
31390;SDS011;18022;45.492;11.548;2024-01-30T02:43:18;22.30;;;12.98;;
31390;SDS011;18022;45.492;11.548;2024-01-30T02:45:44;21.15;;;12.70;;
31390;SDS011;18022;45.492;11.548;2024-01-30T02:48:10;15.45;;;10.23;;
31390;SDS011;18022;45.492;11.548;2024-01-30T02:50:36;15.80;;;10.07;;
31390;SDS011;18022;45.492;11.548;2024-01-30T02:53:02;14.00;;;9.70;;
31390;SDS011;18022;45.492;11.548;2024-01-30T02:55:28;14.48;;;9.13;;
31390;SDS011;18022;45.492;11.548;2024-01-30T02:57:54;14.90;;;10.27;;
31390;SDS011;18022;45.492;11.548;2024-01-30T03:00:20;18.38;;;11.35;;
31390;SDS011;18022;45.492;11.548;2024-01-30T03:02:46;17.67;;;10.77;;
31390;SDS011;18022;45.492;11.548;2024-01-30T03:05:12;15.75;;;10.43;;
31390;SDS011;18022;45.492;11.548;2024-01-30T03:07:38;19.73;;;10.70;;
31390;SDS011;18022;45.492;11.548;2024-01-30T03:10:05;17.27;;;10.48;;
31390;SDS011;18022;45.492;11.548;2024-01-30T03:12:31;15.23;;;9.90;;
31390;SDS011;18022;45.492;11.548;2024-01-30T03:14:57;13.73;;;9.55;;
31390;SDS011;18022;45.492;11.548;2024-01-30T03:17:23;16.90;;;9.90;;
31390;SDS011;18022;45.492;11.548;2024-01-30T03:19:49;15.05;;;9.80;;
31390;SDS011;18022;45.492;11.548;2024-01-30T03:22:15;13.90;;;10.00;;
31390;SDS011;18022;45.492;11.548;2024-01-30T03:24:41;15.38;;;8.95;;
31390;SDS011;18022;45.492;11.548;2024-01-30T03:27:08;14.25;;;9.55;;
31390;SDS011;18022;45.492;11.548;2024-01-30T03:29:34;15.23;;;9.48;;
31390;SDS011;18022;45.492;11.548;2024-01-30T03:32:00;13.48;;;9.20;;
31390;SDS011;18022;45.492;11.548;2024-01-30T03:34:26;17.52;;;9.70;;
31390;SDS011;18022;45.492;11.548;2024-01-30T03:36:52;16.85;;;10.85;;
31390;SDS011;18022;45.492;11.548;2024-01-30T03:39:18;13.25;;;9.52;;
31390;SDS011;18022;45.492;11.548;2024-01-30T03:41:44;15.98;;;9.30;;
31390;SDS011;18022;45.492;11.548;2024-01-30T03:44:10;11.48;;;8.35;;
31390;SDS011;18022;45.492;11.548;2024-01-30T03:46:36;12.30;;;8.55;;
31390;SDS011;18022;45.492;11.548;2024-01-30T03:49:03;12.88;;;8.82;;
31390;SDS011;18022;45.492;11.548;2024-01-30T03:51:29;12.80;;;8.75;;
31390;SDS011;18022;45.492;11.548;2024-01-30T03:53:55;13.52;;;9.38;;
31390;SDS011;18022;45.492;11.548;2024-01-30T03:56:21;13.75;;;8.75;;
31390;SDS011;18022;45.492;11.548;2024-01-30T03:58:47;16.88;;;9.48;;
31390;SDS011;18022;45.492;11.548;2024-01-30T04:01:13;14.40;;;9.43;;
31390;SDS011;18022;45.492;11.548;2024-01-30T04:03:40;16.17;;;10.18;;
31390;SDS011;18022;45.492;11.548;2024-01-30T04:06:06;22.13;;;11.02;;
31390;SDS011;18022;45.492;11.548;2024-01-30T04:08:32;19.33;;;10.35;;
31390;SDS011;18022;45.492;11.548;2024-01-30T04:10:58;14.98;;;10.00;;
31390;SDS011;18022;45.492;11.548;2024-01-30T04:13:24;14.90;;;9.82;;
31390;SDS011;18022;45.492;11.548;2024-01-30T04:15:50;15.93;;;10.18;;
31390;SDS011;18022;45.492;11.548;2024-01-30T04:18:17;16.85;;;9.98;;
31390;SDS011;18022;45.492;11.548;2024-01-30T04:20:43;14.75;;;9.93;;
31390;SDS011;18022;45.492;11.548;2024-01-30T04:23:09;16.83;;;9.98;;
31390;SDS011;18022;45.492;11.548;2024-01-30T04:25:35;12.93;;;9.50;;
31390;SDS011;18022;45.492;11.548;2024-01-30T04:28:01;14.70;;;10.15;;
31390;SDS011;18022;45.492;11.548;2024-01-30T04:30:27;12.95;;;9.32;;
31390;SDS011;18022;45.492;11.548;2024-01-30T04:32:53;17.92;;;9.32;;
31390;SDS011;18022;45.492;11.548;2024-01-30T04:35:19;16.70;;;9.45;;
31390;SDS011;18022;45.492;11.548;2024-01-30T04:37:48;16.35;;;8.88;;
31390;SDS011;18022;45.492;11.548;2024-01-30T04:40:14;12.98;;;8.65;;
31390;SDS011;18022;45.492;11.548;2024-01-30T04:42:40;13.43;;;9.07;;
31390;SDS011;18022;45.492;11.548;2024-01-30T04:45:06;15.45;;;10.05;;
31390;SDS011;18022;45.492;11.548;2024-01-30T04:47:32;13.57;;;9.05;;
31390;SDS011;18022;45.492;11.548;2024-01-30T04:49:59;16.08;;;8.55;;
31390;SDS011;18022;45.492;11.548;2024-01-30T04:52:25;14.05;;;9.80;;
31390;SDS011;18022;45.492;11.548;2024-01-30T04:54:51;15.60;;;9.30;;
31390;SDS011;18022;45.492;11.548;2024-01-30T04:57:17;13.07;;;8.93;;
31390;SDS011;18022;45.492;11.548;2024-01-30T04:59:43;14.13;;;9.02;;
31390;SDS011;18022;45.492;11.548;2024-01-30T05:02:09;14.48;;;9.40;;
31390;SDS011;18022;45.492;11.548;2024-01-30T05:04:35;13.52;;;9.05;;
31390;SDS011;18022;45.492;11.548;2024-01-30T05:07:01;13.80;;;8.77;;
31390;SDS011;18022;45.492;11.548;2024-01-30T05:09:27;14.55;;;9.82;;
31390;SDS011;18022;45.492;11.548;2024-01-30T05:11:53;16.35;;;10.27;;
31390;SDS011;18022;45.492;11.548;2024-01-30T05:14:19;16.17;;;10.18;;
31390;SDS011;18022;45.492;11.548;2024-01-30T05:16:45;16.67;;;10.65;;
31390;SDS011;18022;45.492;11.548;2024-01-30T05:19:15;14.55;;;11.35;;
31390;SDS011;18022;45.492;11.548;2024-01-30T05:21:42;15.82;;;9.80;;
31390;SDS011;18022;45.492;11.548;2024-01-30T05:24:08;14.35;;;10.20;;
31390;SDS011;18022;45.492;11.548;2024-01-30T05:26:35;14.85;;;9.93;;
31390;SDS011;18022;45.492;11.548;2024-01-30T05:29:01;15.32;;;9.80;;
31390;SDS011;18022;45.492;11.548;2024-01-30T05:31:27;18.83;;;9.70;;
31390;SDS011;18022;45.492;11.548;2024-01-30T05:33:54;13.80;;;9.55;;
31390;SDS011;18022;45.492;11.548;2024-01-30T05:36:20;17.77;;;10.80;;
31390;SDS011;18022;45.492;11.548;2024-01-30T05:38:46;16.05;;;10.50;;
31390;SDS011;18022;45.492;11.548;2024-01-30T05:41:12;15.02;;;9.38;;
31390;SDS011;18022;45.492;11.548;2024-01-30T05:43:39;16.45;;;10.35;;
31390;SDS011;18022;45.492;11.548;2024-01-30T05:46:06;25.58;;;15.88;;
31390;SDS011;18022;45.492;11.548;2024-01-30T05:48:32;23.00;;;14.87;;
31390;SDS011;18022;45.492;11.548;2024-01-30T05:51:00;18.20;;;11.90;;
31390;SDS011;18022;45.492;11.548;2024-01-30T05:53:26;15.85;;;11.07;;
31390;SDS011;18022;45.492;11.548;2024-01-30T05:55:52;18.02;;;11.52;;
31390;SDS011;18022;45.492;11.548;2024-01-30T05:58:18;18.63;;;13.13;;
31390;SDS011;18022;45.492;11.548;2024-01-30T06:00:44;21.20;;;14.90;;
31390;SDS011;18022;45.492;11.548;2024-01-30T06:03:10;22.73;;;15.88;;
31390;SDS011;18022;45.492;11.548;2024-01-30T06:05:36;20.75;;;15.82;;
31390;SDS011;18022;45.492;11.548;2024-01-30T06:08:02;21.42;;;15.65;;
31390;SDS011;18022;45.492;11.548;2024-01-30T06:10:28;20.23;;;15.65;;
31390;SDS011;18022;45.492;11.548;2024-01-30T06:12:54;20.98;;;15.43;;
31390;SDS011;18022;45.492;11.548;2024-01-30T06:15:20;25.88;;;17.42;;
31390;SDS011;18022;45.492;11.548;2024-01-30T06:17:46;24.58;;;17.17;;
31390;SDS011;18022;45.492;11.548;2024-01-30T06:20:13;23.65;;;17.73;;
31390;SDS011;18022;45.492;11.548;2024-01-30T06:22:39;25.20;;;18.00;;
31390;SDS011;18022;45.492;11.548;2024-01-30T06:25:05;23.45;;;18.83;;
31390;SDS011;18022;45.492;11.548;2024-01-30T06:27:31;22.80;;;18.13;;
31390;SDS011;18022;45.492;11.548;2024-01-30T06:29:57;25.15;;;20.02;;
31390;SDS011;18022;45.492;11.548;2024-01-30T06:32:23;27.65;;;20.02;;
31390;SDS011;18022;45.492;11.548;2024-01-30T06:34:49;30.60;;;22.83;;
31390;SDS011;18022;45.492;11.548;2024-01-30T06:37:15;28.50;;;21.63;;
31390;SDS011;18022;45.492;11.548;2024-01-30T06:39:42;27.40;;;20.83;;
31390;SDS011;18022;45.492;11.548;2024-01-30T06:42:08;22.08;;;17.95;;
31390;SDS011;18022;45.492;11.548;2024-01-30T06:44:34;21.02;;;15.77;;
31390;SDS011;18022;45.492;11.548;2024-01-30T06:47:00;20.17;;;14.82;;
31390;SDS011;18022;45.492;11.548;2024-01-30T06:49:26;19.92;;;14.77;;
31390;SDS011;18022;45.492;11.548;2024-01-30T06:51:52;19.92;;;15.60;;
31390;SDS011;18022;45.492;11.548;2024-01-30T06:54:18;17.88;;;14.10;;
31390;SDS011;18022;45.492;11.548;2024-01-30T06:56:44;17.75;;;13.35;;
31390;SDS011;18022;45.492;11.548;2024-01-30T06:59:10;17.73;;;13.10;;
31390;SDS011;18022;45.492;11.548;2024-01-30T07:01:36;16.00;;;12.48;;
31390;SDS011;18022;45.492;11.548;2024-01-30T07:04:02;15.45;;;11.43;;
31390;SDS011;18022;45.492;11.548;2024-01-30T07:06:28;17.83;;;13.10;;
31390;SDS011;18022;45.492;11.548;2024-01-30T07:08:54;17.48;;;10.65;;
31390;SDS011;18022;45.492;11.548;2024-01-30T07:11:21;17.90;;;10.95;;
31390;SDS011;18022;45.492;11.548;2024-01-30T07:16:15;15.45;;;11.38;;
31390;SDS011;18022;45.492;11.548;2024-01-30T07:18:41;17.52;;;11.68;;
31390;SDS011;18022;45.492;11.548;2024-01-30T07:21:07;15.63;;;11.20;;
31390;SDS011;18022;45.492;11.548;2024-01-30T07:23:33;15.65;;;11.30;;
31390;SDS011;18022;45.492;11.548;2024-01-30T07:26:00;23.13;;;15.00;;
31390;SDS011;18022;45.492;11.548;2024-01-30T07:28:26;37.60;;;22.83;;
31390;SDS011;18022;45.492;11.548;2024-01-30T07:30:52;35.80;;;25.88;;
31390;SDS011;18022;45.492;11.548;2024-01-30T07:33:19;42.88;;;26.95;;
31390;SDS011;18022;45.492;11.548;2024-01-30T07:35:45;33.42;;;25.48;;
31390;SDS011;18022;45.492;11.548;2024-01-30T07:38:11;35.33;;;21.17;;
31390;SDS011;18022;45.492;11.548;2024-01-30T07:40:37;32.15;;;22.63;;
31390;SDS011;18022;45.492;11.548;2024-01-30T07:43:03;27.17;;;21.33;;
31390;SDS011;18022;45.492;11.548;2024-01-30T07:45:29;32.13;;;22.00;;
31390;SDS011;18022;45.492;11.548;2024-01-30T07:47:59;29.23;;;20.23;;
31390;SDS011;18022;45.492;11.548;2024-01-30T07:50:25;28.90;;;21.08;;
31390;SDS011;18022;45.492;11.548;2024-01-30T07:52:51;21.13;;;16.95;;
31390;SDS011;18022;45.492;11.548;2024-01-30T07:55:20;31.33;;;14.65;;
31390;SDS011;18022;45.492;11.548;2024-01-30T07:57:52;20.23;;;15.38;;
31390;SDS011;18022;45.492;11.548;2024-01-30T08:00:19;21.45;;;15.23;;
31390;SDS011;18022;45.492;11.548;2024-01-30T08:02:45;20.55;;;15.32;;
31390;SDS011;18022;45.492;11.548;2024-01-30T08:05:11;20.02;;;15.70;;
31390;SDS011;18022;45.492;11.548;2024-01-30T08:07:39;20.23;;;14.82;;
31390;SDS011;18022;45.492;11.548;2024-01-30T08:10:05;20.27;;;14.15;;
31390;SDS011;18022;45.492;11.548;2024-01-30T08:12:31;22.23;;;16.52;;
31390;SDS011;18022;45.492;11.548;2024-01-30T08:14:57;22.58;;;15.63;;
31390;SDS011;18022;45.492;11.548;2024-01-30T08:17:23;21.73;;;16.15;;
31390;SDS011;18022;45.492;11.548;2024-01-30T08:19:49;27.05;;;17.52;;
31390;SDS011;18022;45.492;11.548;2024-01-30T08:22:15;24.10;;;16.08;;
31390;SDS011;18022;45.492;11.548;2024-01-30T08:24:42;22.60;;;16.38;;
31390;SDS011;18022;45.492;11.548;2024-01-30T08:27:08;24.33;;;17.88;;
31390;SDS011;18022;45.492;11.548;2024-01-30T08:29:37;27.05;;;18.38;;
31390;SDS011;18022;45.492;11.548;2024-01-30T08:32:06;23.90;;;18.52;;
31390;SDS011;18022;45.492;11.548;2024-01-30T08:34:32;24.17;;;17.23;;
31390;SDS011;18022;45.492;11.548;2024-01-30T08:36:58;25.42;;;17.75;;
31390;SDS011;18022;45.492;11.548;2024-01-30T08:39:24;26.63;;;18.42;;
31390;SDS011;18022;45.492;11.548;2024-01-30T08:41:50;29.05;;;18.42;;
31390;SDS011;18022;45.492;11.548;2024-01-30T08:44:16;23.85;;;17.90;;
31390;SDS011;18022;45.492;11.548;2024-01-30T08:46:43;27.08;;;18.83;;
31390;SDS011;18022;45.492;11.548;2024-01-30T08:49:10;27.17;;;18.73;;
31390;SDS011;18022;45.492;11.548;2024-01-30T08:51:38;27.15;;;18.98;;
31390;SDS011;18022;45.492;11.548;2024-01-30T08:54:04;29.17;;;18.58;;
31390;SDS011;18022;45.492;11.548;2024-01-30T08:56:30;29.58;;;19.48;;
31390;SDS011;18022;45.492;11.548;2024-01-30T08:58:56;27.08;;;17.67;;
31390;SDS011;18022;45.492;11.548;2024-01-30T09:01:22;26.80;;;18.48;;
31390;SDS011;18022;45.492;11.548;2024-01-30T09:03:48;28.83;;;18.67;;
31390;SDS011;18022;45.492;11.548;2024-01-30T09:06:14;32.10;;;18.10;;
31390;SDS011;18022;45.492;11.548;2024-01-30T09:08:40;25.50;;;18.05;;
31390;SDS011;18022;45.492;11.548;2024-01-30T09:11:13;29.05;;;18.63;;
31390;SDS011;18022;45.492;11.548;2024-01-30T09:13:39;26.95;;;17.75;;
31390;SDS011;18022;45.492;11.548;2024-01-30T09:16:06;27.70;;;17.80;;
31390;SDS011;18022;45.492;11.548;2024-01-30T09:18:32;28.83;;;17.83;;
31390;SDS011;18022;45.492;11.548;2024-01-30T09:20:58;26.95;;;18.48;;
31390;SDS011;18022;45.492;11.548;2024-01-30T09:23:25;29.45;;;17.58;;
31390;SDS011;18022;45.492;11.548;2024-01-30T09:25:51;30.15;;;19.90;;
31390;SDS011;18022;45.492;11.548;2024-01-30T09:28:17;25.45;;;17.92;;
31390;SDS011;18022;45.492;11.548;2024-01-30T09:30:43;26.08;;;17.23;;
31390;SDS011;18022;45.492;11.548;2024-01-30T09:33:09;25.85;;;18.08;;
31390;SDS011;18022;45.492;11.548;2024-01-30T09:35:36;32.60;;;19.30;;
31390;SDS011;18022;45.492;11.548;2024-01-30T09:38:02;27.10;;;18.48;;
31390;SDS011;18022;45.492;11.548;2024-01-30T09:40:28;24.88;;;18.33;;
31390;SDS011;18022;45.492;11.548;2024-01-30T09:42:54;29.52;;;18.13;;
31390;SDS011;18022;45.492;11.548;2024-01-30T09:45:24;28.27;;;18.55;;
31390;SDS011;18022;45.492;11.548;2024-01-30T09:47:50;27.92;;;19.50;;
31390;SDS011;18022;45.492;11.548;2024-01-30T09:50:17;27.52;;;19.85;;
31390;SDS011;18022;45.492;11.548;2024-01-30T09:52:44;21.00;;;14.63;;
31390;SDS011;18022;45.492;11.548;2024-01-30T09:55:10;26.63;;;19.05;;
31390;SDS011;18022;45.492;11.548;2024-01-30T09:57:36;31.27;;;21.08;;
31390;SDS011;18022;45.492;11.548;2024-01-30T10:00:03;29.25;;;19.55;;
31390;SDS011;18022;45.492;11.548;2024-01-30T10:02:30;29.90;;;20.10;;
31390;SDS011;18022;45.492;11.548;2024-01-30T10:04:57;29.65;;;20.95;;
31390;SDS011;18022;45.492;11.548;2024-01-30T10:07:23;28.77;;;21.35;;
31390;SDS011;18022;45.492;11.548;2024-01-30T10:09:49;30.63;;;21.65;;
31390;SDS011;18022;45.492;11.548;2024-01-30T10:12:15;29.65;;;20.85;;
31390;SDS011;18022;45.492;11.548;2024-01-30T10:14:42;33.40;;;22.08;;
31390;SDS011;18022;45.492;11.548;2024-01-30T10:17:11;31.50;;;21.83;;
31390;SDS011;18022;45.492;11.548;2024-01-30T10:19:40;31.70;;;22.60;;
31390;SDS011;18022;45.492;11.548;2024-01-30T10:22:07;33.20;;;22.63;;
31390;SDS011;18022;45.492;11.548;2024-01-30T10:24:33;33.78;;;22.60;;
31390;SDS011;18022;45.492;11.548;2024-01-30T10:27:00;31.67;;;22.85;;
31390;SDS011;18022;45.492;11.548;2024-01-30T10:29:26;30.55;;;22.23;;
31390;SDS011;18022;45.492;11.548;2024-01-30T10:32:02;30.40;;;22.35;;
31390;SDS011;18022;45.492;11.548;2024-01-30T10:34:29;29.45;;;22.42;;
31390;SDS011;18022;45.492;11.548;2024-01-30T10:36:59;28.67;;;21.98;;
31390;SDS011;18022;45.492;11.548;2024-01-30T10:39:27;31.38;;;21.90;;
31390;SDS011;18022;45.492;11.548;2024-01-30T10:41:56;29.20;;;22.33;;
31390;SDS011;18022;45.492;11.548;2024-01-30T10:44:25;32.70;;;23.27;;
31390;SDS011;18022;45.492;11.548;2024-01-30T10:46:56;30.83;;;23.10;;
31390;SDS011;18022;45.492;11.548;2024-01-30T10:49:25;34.78;;;23.00;;
31390;SDS011;18022;45.492;11.548;2024-01-30T10:51:51;29.50;;;22.45;;
31390;SDS011;18022;45.492;11.548;2024-01-30T10:54:18;30.55;;;23.92;;
31390;SDS011;18022;45.492;11.548;2024-01-30T10:56:45;33.28;;;23.02;;
31390;SDS011;18022;45.492;11.548;2024-01-30T10:59:12;27.85;;;21.70;;
31390;SDS011;18022;45.492;11.548;2024-01-30T11:01:38;30.17;;;21.63;;
31390;SDS011;18022;45.492;11.548;2024-01-30T11:04:05;35.10;;;22.40;;
31390;SDS011;18022;45.492;11.548;2024-01-30T11:06:32;29.10;;;20.70;;
31390;SDS011;18022;45.492;11.548;2024-01-30T11:09:09;30.50;;;20.60;;
31390;SDS011;18022;45.492;11.548;2024-01-30T11:14:25;35.67;;;23.27;;
31390;SDS011;18022;45.492;11.548;2024-01-30T11:16:52;34.78;;;22.60;;
31390;SDS011;18022;45.492;11.548;2024-01-30T11:19:25;33.25;;;22.85;;
31390;SDS011;18022;45.492;11.548;2024-01-30T11:21:54;37.80;;;22.83;;
31390;SDS011;18022;45.492;11.548;2024-01-30T11:24:22;36.58;;;24.73;;
31390;SDS011;18022;45.492;11.548;2024-01-30T11:26:57;35.72;;;22.92;;
31390;SDS011;18022;45.492;11.548;2024-01-30T11:29:27;33.10;;;23.52;;
31390;SDS011;18022;45.492;11.548;2024-01-30T11:31:54;32.72;;;23.30;;
31390;SDS011;18022;45.492;11.548;2024-01-30T11:34:20;39.97;;;23.10;;
31390;SDS011;18022;45.492;11.548;2024-01-30T11:36:55;31.95;;;21.45;;
31390;SDS011;18022;45.492;11.548;2024-01-30T11:39:25;34.55;;;22.13;;
31390;SDS011;18022;45.492;11.548;2024-01-30T11:41:51;33.85;;;21.67;;
31390;SDS011;18022;45.492;11.548;2024-01-30T11:44:18;33.97;;;23.25;;
31390;SDS011;18022;45.492;11.548;2024-01-30T11:46:45;33.33;;;21.67;;
31390;SDS011;18022;45.492;11.548;2024-01-30T11:49:12;34.28;;;22.17;;
31390;SDS011;18022;45.492;11.548;2024-01-30T11:51:38;36.17;;;24.45;;
31390;SDS011;18022;45.492;11.548;2024-01-30T11:54:04;34.55;;;22.52;;
31390;SDS011;18022;45.492;11.548;2024-01-30T11:56:30;35.28;;;22.77;;
31390;SDS011;18022;45.492;11.548;2024-01-30T11:58:56;41.97;;;23.00;;
31390;SDS011;18022;45.492;11.548;2024-01-30T12:01:22;37.92;;;24.50;;
31390;SDS011;18022;45.492;11.548;2024-01-30T12:03:51;41.08;;;24.65;;
31390;SDS011;18022;45.492;11.548;2024-01-30T12:06:17;36.85;;;24.48;;
31390;SDS011;18022;45.492;11.548;2024-01-30T12:08:43;34.50;;;24.00;;
31390;SDS011;18022;45.492;11.548;2024-01-30T12:11:19;35.90;;;23.40;;
31390;SDS011;18022;45.492;11.548;2024-01-30T12:13:45;35.03;;;23.65;;
31390;SDS011;18022;45.492;11.548;2024-01-30T12:16:11;34.63;;;24.08;;
31390;SDS011;18022;45.492;11.548;2024-01-30T12:18:39;34.42;;;24.27;;
31390;SDS011;18022;45.492;11.548;2024-01-30T12:21:05;35.00;;;24.98;;
31390;SDS011;18022;45.492;11.548;2024-01-30T12:23:32;35.30;;;24.90;;
31390;SDS011;18022;45.492;11.548;2024-01-30T12:25:58;41.03;;;27.23;;
31390;SDS011;18022;45.492;11.548;2024-01-30T12:28:25;39.97;;;26.92;;
31390;SDS011;18022;45.492;11.548;2024-01-30T12:30:54;41.10;;;25.85;;
31390;SDS011;18022;45.492;11.548;2024-01-30T12:33:20;46.40;;;30.05;;
31390;SDS011;18022;45.492;11.548;2024-01-30T12:35:46;44.33;;;28.65;;
31390;SDS011;18022;45.492;11.548;2024-01-30T12:38:16;38.20;;;26.45;;
31390;SDS011;18022;45.492;11.548;2024-01-30T12:40:42;71.25;;;44.78;;
31390;SDS011;18022;45.492;11.548;2024-01-30T12:43:08;46.67;;;33.10;;
31390;SDS011;18022;45.492;11.548;2024-01-30T12:45:34;42.90;;;27.45;;
31390;SDS011;18022;45.492;11.548;2024-01-30T12:48:00;58.15;;;35.60;;
31390;SDS011;18022;45.492;11.548;2024-01-30T12:50:26;44.63;;;26.63;;
31390;SDS011;18022;45.492;11.548;2024-01-30T12:52:52;47.45;;;29.30;;
31390;SDS011;18022;45.492;11.548;2024-01-30T12:55:18;37.80;;;26.55;;
31390;SDS011;18022;45.492;11.548;2024-01-30T12:57:44;51.33;;;30.92;;
31390;SDS011;18022;45.492;11.548;2024-01-30T13:00:10;40.45;;;28.77;;
31390;SDS011;18022;45.492;11.548;2024-01-30T13:02:37;40.05;;;26.77;;
31390;SDS011;18022;45.492;11.548;2024-01-30T13:05:03;41.60;;;26.55;;
31390;SDS011;18022;45.492;11.548;2024-01-30T13:07:29;41.55;;;27.52;;
31390;SDS011;18022;45.492;11.548;2024-01-30T13:09:56;46.40;;;31.95;;
31390;SDS011;18022;45.492;11.548;2024-01-30T13:12:27;59.85;;;39.78;;
31390;SDS011;18022;45.492;11.548;2024-01-30T13:14:54;46.80;;;29.65;;
31390;SDS011;18022;45.492;11.548;2024-01-30T13:17:20;55.90;;;35.75;;
31390;SDS011;18022;45.492;11.548;2024-01-30T13:19:46;49.92;;;31.48;;
31390;SDS011;18022;45.492;11.548;2024-01-30T13:22:14;44.80;;;31.48;;
31390;SDS011;18022;45.492;11.548;2024-01-30T13:24:40;51.65;;;34.50;;
31390;SDS011;18022;45.492;11.548;2024-01-30T13:27:06;43.88;;;31.65;;
31390;SDS011;18022;45.492;11.548;2024-01-30T13:29:33;47.17;;;33.67;;
31390;SDS011;18022;45.492;11.548;2024-01-30T13:31:59;50.15;;;35.10;;
31390;SDS011;18022;45.492;11.548;2024-01-30T13:34:25;56.67;;;38.25;;
31390;SDS011;18022;45.492;11.548;2024-01-30T13:36:52;51.10;;;35.50;;
31390;SDS011;18022;45.492;11.548;2024-01-30T13:39:18;43.25;;;30.55;;
31390;SDS011;18022;45.492;11.548;2024-01-30T13:41:44;45.33;;;31.85;;
31390;SDS011;18022;45.492;11.548;2024-01-30T13:44:10;40.67;;;29.67;;
31390;SDS011;18022;45.492;11.548;2024-01-30T13:46:36;47.03;;;33.92;;
31390;SDS011;18022;45.492;11.548;2024-01-30T13:49:04;47.70;;;32.33;;
31390;SDS011;18022;45.492;11.548;2024-01-30T13:51:30;44.08;;;30.08;;
31390;SDS011;18022;45.492;11.548;2024-01-30T13:53:56;40.33;;;26.77;;
31390;SDS011;18022;45.492;11.548;2024-01-30T13:56:22;41.55;;;27.73;;
31390;SDS011;18022;45.492;11.548;2024-01-30T13:58:48;52.72;;;34.05;;
31390;SDS011;18022;45.492;11.548;2024-01-30T14:01:15;59.05;;;36.25;;
31390;SDS011;18022;45.492;11.548;2024-01-30T14:03:41;45.70;;;30.33;;
31390;SDS011;18022;45.492;11.548;2024-01-30T14:06:07;43.53;;;27.13;;
31390;SDS011;18022;45.492;11.548;2024-01-30T14:08:33;41.50;;;27.70;;
31390;SDS011;18022;45.492;11.548;2024-01-30T14:10:59;43.67;;;28.85;;
31390;SDS011;18022;45.492;11.548;2024-01-30T14:13:25;40.92;;;28.15;;